Time;durP1;ratioP1;P1;durP2;ratioP2;P2;SDS_P1;SDS_P2;PMS_P1;PMS_P2;Temp;Humidity;BMP_temperature;BMP_pressure;BME280_temperature;BME280_humidity;BME280_pressure;Samples;Min_cycle;Max_cycle;Signal;HPM_P1;HPM_P2
2020/12/29 00:01:34;;;;;;;0.30;0.30;;;3.30;99.90;;;;;;5077953;28;20202;-82
2020/12/29 00:04:00;;;;;;;0.20;0.20;;;3.40;99.90;;;;;;5054668;28;20181;-82
2020/12/29 00:06:26;;;;;;;1.20;1.10;;;3.40;99.90;;;;;;5072971;28;20277;-82
2020/12/29 00:08:51;;;;;;;0.30;0.30;;;3.30;99.90;;;;;;5055387;28;20190;-83
2020/12/29 00:11:17;;;;;;;0.20;0.20;;;3.10;99.90;;;;;;5057171;28;20647;-81
2020/12/29 00:13:42;;;;;;;0.87;0.43;;;3.10;99.90;;;;;;5054799;28;20214;-83
2020/12/29 00:16:08;;;;;;;0.93;0.30;;;3.10;99.90;;;;;;5062734;28;20281;-82
2020/12/29 00:18:35;;;;;;;0.27;0.27;;;2.80;99.90;;;;;;5061082;28;20178;-81
2020/12/29 00:21:01;;;;;;;0.20;0.20;;;2.70;99.90;;;;;;5063866;28;20206;-83
2020/12/29 00:23:27;;;;;;;0.30;0.27;;;2.60;99.90;;;;;;5048426;28;20678;-83
2020/12/29 00:25:53;;;;;;;0.20;0.20;;;2.40;99.90;;;;;;5046034;28;20273;-82
2020/12/29 00:28:19;;;;;;;0.13;0.13;;;2.30;99.90;;;;;;5059460;28;20292;-83
2020/12/29 00:30:44;;;;;;;0.90;0.73;;;2.30;99.90;;;;;;5047950;28;20210;-84
2020/12/29 00:33:10;;;;;;;0.10;0.10;;;2.30;99.90;;;;;;5049516;28;20298;-80
2020/12/29 00:35:35;;;;;;;0.67;0.30;;;2.40;99.90;;;;;;5056409;28;20620;-82
2020/12/29 00:38:01;;;;;;;0.10;0.10;;;2.40;99.90;;;;;;5055767;28;20241;-83
2020/12/29 00:40:26;;;;;;;0.07;0.07;;;2.30;99.90;;;;;;5057159;28;20185;-82
2020/12/29 00:42:52;;;;;;;0.00;0.00;;;2.30;99.90;;;;;;5053179;28;20265;-83
2020/12/29 00:45:18;;;;;;;0.10;0.10;;;2.40;99.90;;;;;;5056595;28;20194;-82
2020/12/29 00:47:43;;;;;;;0.30;0.20;;;2.40;99.90;;;;;;5061568;28;20186;-81
2020/12/29 00:50:09;;;;;;;0.30;0.30;;;2.40;99.90;;;;;;5060532;28;20186;-82
2020/12/29 00:52:34;;;;;;;0.10;0.10;;;2.40;99.90;;;;;;5054432;28;20578;-82
2020/12/29 00:55:00;;;;;;;0.10;0.10;;;2.40;99.90;;;;;;5053460;28;20188;-82
2020/12/29 00:57:25;;;;;;;0.57;0.17;;;2.40;99.90;;;;;;5054204;28;20177;-82
2020/12/29 00:59:51;;;;;;;0.20;0.17;;;2.30;99.90;;;;;;5055011;28;20199;-82
2020/12/29 01:02:16;;;;;;;1.07;0.97;;;2.20;99.90;;;;;;5061326;28;20202;-83
2020/12/29 01:04:42;;;;;;;0.20;0.20;;;2.20;99.90;;;;;;5054542;28;20225;-82
2020/12/29 01:07:07;;;;;;;0.00;0.00;;;2.20;99.90;;;;;;5062508;28;20264;-83
2020/12/29 01:09:33;;;;;;;0.03;0.03;;;2.20;99.90;;;;;;5062580;28;20204;-83
2020/12/29 01:11:58;;;;;;;0.30;0.30;;;2.40;99.90;;;;;;5070798;28;20271;-83
2020/12/29 01:14:24;;;;;;;1.33;0.40;;;2.30;99.90;;;;;;5051257;28;20273;-83
2020/12/29 01:16:50;;;;;;;0.10;0.10;;;2.40;99.90;;;;;;5061618;28;20185;-82
2020/12/29 01:19:16;;;;;;;0.20;0.20;;;2.40;99.90;;;;;;5052636;28;20265;-83
2020/12/29 01:21:42;;;;;;;0.30;0.30;;;2.40;99.90;;;;;;5053604;28;20577;-81
2020/12/29 01:24:07;;;;;;;0.23;0.23;;;2.40;99.90;;;;;;5053128;28;20187;-82
2020/12/29 01:26:33;;;;;;;0.20;0.20;;;2.40;99.90;;;;;;5063038;28;20190;-82
2020/12/29 01:28:58;;;;;;;0.00;0.00;;;2.50;99.90;;;;;;5062585;28;20191;-82
2020/12/29 01:31:26;;;;;;;0.10;0.10;;;2.60;99.90;;;;;;5062719;28;20209;-83
2020/12/29 01:33:52;;;;;;;0.10;0.10;;;2.60;99.90;;;;;;5055676;28;20609;-82
2020/12/29 01:36:17;;;;;;;0.10;0.10;;;2.70;99.90;;;;;;5050585;28;20192;-82
2020/12/29 01:38:43;;;;;;;0.10;0.10;;;2.70;99.90;;;;;;5057957;28;20261;-83
2020/12/29 01:41:08;;;;;;;0.20;0.10;;;3.00;99.90;;;;;;5051809;28;20202;-83
2020/12/29 01:43:34;;;;;;;0.20;0.20;;;2.90;99.90;;;;;;5066570;28;20670;-83
2020/12/29 01:46:00;;;;;;;0.33;0.10;;;2.80;99.90;;;;;;5051180;28;20181;-83
2020/12/29 01:48:26;;;;;;;0.10;0.10;;;2.80;99.90;;;;;;5062402;28;20279;-82
2020/12/29 01:50:52;;;;;;;0.10;0.10;;;2.70;99.90;;;;;;5052657;28;20205;-83
2020/12/29 01:53:17;;;;;;;0.63;0.10;;;2.80;99.90;;;;;;5055188;28;20198;-82
2020/12/29 01:55:43;;;;;;;0.13;0.13;;;2.70;99.90;;;;;;5052199;28;20182;-82
2020/12/29 01:58:09;;;;;;;0.10;0.10;;;2.70;99.90;;;;;;5037676;28;20309;-83
2020/12/29 02:00:35;;;;;;;0.00;0.00;;;2.70;99.90;;;;;;5048347;28;20245;-82
2020/12/29 02:03:01;;;;;;;0.10;0.10;;;2.80;99.90;;;;;;5052815;28;20217;-83
2020/12/29 02:05:27;;;;;;;0.30;0.20;;;2.80;99.90;;;;;;5047315;28;20259;-82
2020/12/29 02:07:53;;;;;;;1.70;0.50;;;2.80;99.90;;;;;;5058079;28;20190;-83
2020/12/29 02:10:18;;;;;;;0.10;0.10;;;2.70;99.90;;;;;;5054915;28;20197;-84
2020/12/29 02:12:44;;;;;;;0.10;0.10;;;2.80;99.90;;;;;;5056410;28;20569;-85
2020/12/29 02:15:10;;;;;;;0.13;0.13;;;2.90;99.90;;;;;;5050632;28;20570;-82
2020/12/29 02:17:36;;;;;;;0.53;0.47;;;2.90;99.90;;;;;;5051741;28;20578;-82
2020/12/29 02:20:05;;;;;;;0.10;0.10;;;2.90;99.90;;;;;;5047401;28;20225;-82
2020/12/29 02:22:31;;;;;;;0.10;0.10;;;2.90;99.90;;;;;;5061610;28;20670;-82
2020/12/29 02:25:02;;;;;;;0.47;0.20;;;3.10;99.90;;;;;;5045101;28;20190;-82
2020/12/29 02:27:31;;;;;;;0.10;0.10;;;3.10;99.90;;;;;;5051449;28;20194;-81
2020/12/29 02:29:57;;;;;;;0.10;0.10;;;2.90;99.90;;;;;;5059165;28;20284;-81
2020/12/29 02:32:24;;;;;;;0.10;0.10;;;2.80;99.90;;;;;;5052419;28;20209;-81
2020/12/29 02:34:50;;;;;;;0.20;0.20;;;2.70;99.90;;;;;;5053717;28;20194;-81
2020/12/29 02:37:17;;;;;;;0.00;0.00;;;2.70;99.90;;;;;;5062731;28;20182;-81
2020/12/29 02:39:44;;;;;;;0.10;0.10;;;2.70;99.90;;;;;;5038505;28;20630;-82
2020/12/29 02:42:10;;;;;;;0.20;0.20;;;2.70;99.90;;;;;;5051750;28;20202;-82
2020/12/29 02:44:37;;;;;;;0.10;0.10;;;2.70;99.90;;;;;;5054396;28;20246;-82
2020/12/29 02:47:03;;;;;;;0.10;0.10;;;2.80;99.90;;;;;;5066437;28;20185;-81
2020/12/29 02:49:29;;;;;;;0.10;0.10;;;2.90;99.90;;;;;;5043425;28;20664;-82
2020/12/29 02:51:57;;;;;;;0.30;0.30;;;2.80;99.90;;;;;;5057564;28;20221;-81
2020/12/29 02:54:24;;;;;;;0.10;0.10;;;2.80;99.90;;;;;;5044140;28;20185;-81
2020/12/29 02:56:50;;;;;;;0.10;0.10;;;2.80;99.90;;;;;;5049455;28;20291;-82
2020/12/29 02:59:15;;;;;;;0.10;0.10;;;2.80;99.90;;;;;;5042088;28;20222;-79
2020/12/29 03:01:41;;;;;;;0.00;0.00;;;3.00;99.90;;;;;;5048886;28;20206;-80
2020/12/29 03:04:06;;;;;;;0.10;0.10;;;3.00;99.90;;;;;;5050364;28;20213;-81
2020/12/29 03:06:32;;;;;;;0.10;0.10;;;2.90;99.90;;;;;;5051493;28;20204;-81
2020/12/29 03:08:57;;;;;;;0.00;0.00;;;2.80;99.90;;;;;;5044828;28;20194;-81
2020/12/29 03:11:28;;;;;;;0.10;0.10;;;2.80;99.90;;;;;;5052410;28;20732;-82
2020/12/29 03:13:55;;;;;;;0.20;0.20;;;2.70;99.90;;;;;;5053983;28;20680;-81
2020/12/29 03:16:21;;;;;;;0.90;0.33;;;2.60;99.90;;;;;;5063120;28;20188;-80
2020/12/29 03:18:47;;;;;;;0.07;0.07;;;2.70;99.90;;;;;;5049603;28;20190;-80
2020/12/29 03:21:13;;;;;;;0.10;0.10;;;2.70;99.90;;;;;;5061870;28;20208;-82
2020/12/29 03:23:38;;;;;;;0.10;0.10;;;2.70;99.90;;;;;;5048262;28;20190;-82
2020/12/29 03:26:04;;;;;;;0.20;0.20;;;2.70;99.90;;;;;;5041071;28;20669;-82
2020/12/29 03:28:29;;;;;;;0.20;0.13;;;2.80;99.90;;;;;;5061526;28;20192;-81
2020/12/29 03:30:55;;;;;;;0.00;0.00;;;3.00;99.90;;;;;;5058781;28;20181;-81
2020/12/29 03:33:21;;;;;;;0.03;0.03;;;3.10;99.90;;;;;;5039773;28;20215;-81
2020/12/29 03:35:46;;;;;;;0.10;0.10;;;3.20;99.90;;;;;;5063953;28;20212;-80
2020/12/29 03:38:12;;;;;;;0.10;0.10;;;3.10;99.90;;;;;;5059052;28;20190;-82
2020/12/29 03:40:37;;;;;;;0.00;0.00;;;3.10;99.90;;;;;;5054884;28;20182;-81
2020/12/29 03:43:03;;;;;;;0.10;0.10;;;3.20;99.90;;;;;;5054706;28;20728;-80
2020/12/29 03:45:28;;;;;;;0.40;0.30;;;3.20;99.90;;;;;;5049828;28;20699;-82
2020/12/29 03:47:54;;;;;;;4.13;0.20;;;3.40;99.90;;;;;;5051358;28;20186;-81
2020/12/29 03:50:20;;;;;;;0.30;0.30;;;3.40;99.90;;;;;;5055343;28;20183;-82
2020/12/29 03:52:46;;;;;;;0.00;0.00;;;3.40;99.90;;;;;;5055705;28;20228;-81
2020/12/29 03:55:12;;;;;;;0.17;0.17;;;3.20;99.90;;;;;;5054443;28;20198;-81
2020/12/29 03:57:38;;;;;;;0.10;0.10;;;3.10;99.90;;;;;;5053178;28;20662;-80
2020/12/29 04:00:06;;;;;;;0.30;0.30;;;3.00;99.90;;;;;;5046708;28;20260;-80
2020/12/29 04:02:32;;;;;;;0.23;0.17;;;3.10;99.90;;;;;;5051208;28;20228;-82
2020/12/29 04:04:57;;;;;;;0.30;0.30;;;3.00;99.90;;;;;;5047834;28;20198;-82
2020/12/29 04:07:23;;;;;;;0.57;0.30;;;3.10;99.90;;;;;;5071768;28;20181;-82
2020/12/29 04:09:48;;;;;;;0.10;0.10;;;3.30;99.90;;;;;;5063491;28;20256;-81
2020/12/29 04:12:14;;;;;;;0.17;0.17;;;3.10;99.90;;;;;;5062208;28;20221;-80
2020/12/29 04:14:39;;;;;;;0.17;0.17;;;3.00;99.90;;;;;;5053294;28;20607;-80
2020/12/29 04:17:05;;;;;;;1.03;0.47;;;3.10;99.90;;;;;;5072244;28;20655;-81
2020/12/29 04:19:30;;;;;;;0.53;0.23;;;3.10;99.90;;;;;;5061866;28;20189;-82
2020/12/29 04:21:56;;;;;;;0.43;0.43;;;3.10;99.90;;;;;;5058158;28;20205;-81
2020/12/29 04:24:22;;;;;;;0.20;0.20;;;3.20;99.90;;;;;;5065761;28;20185;-81
2020/12/29 04:26:47;;;;;;;0.27;0.27;;;3.20;99.90;;;;;;5057043;28;20190;-81
2020/12/29 04:29:13;;;;;;;0.10;0.10;;;3.40;99.90;;;;;;5054319;28;20197;-81
2020/12/29 04:31:39;;;;;;;0.10;0.10;;;3.30;99.90;;;;;;5051158;28;20198;-81
2020/12/29 04:34:04;;;;;;;0.00;0.00;;;3.40;99.90;;;;;;5053675;28;20267;-81
2020/12/29 04:36:30;;;;;;;0.20;0.20;;;3.60;99.90;;;;;;5054463;28;20186;-82
2020/12/29 04:38:55;;;;;;;0.20;0.20;;;3.70;99.90;;;;;;5053252;28;20189;-82
2020/12/29 04:41:21;;;;;;;0.10;0.10;;;3.70;99.90;;;;;;5052555;28;20203;-82
2020/12/29 04:43:47;;;;;;;0.27;0.27;;;3.90;99.90;;;;;;5054822;28;20189;-81
2020/12/29 04:46:13;;;;;;;0.60;0.37;;;4.10;99.90;;;;;;5062462;28;20679;-82
2020/12/29 04:48:39;;;;;;;0.10;0.10;;;4.20;99.90;;;;;;5044806;28;20186;-82
2020/12/29 04:51:07;;;;;;;0.10;0.10;;;4.30;99.90;;;;;;5052735;28;20261;-80
2020/12/29 04:53:35;;;;;;;0.63;0.23;;;4.40;99.90;;;;;;5046501;28;20679;-82
2020/12/29 04:56:08;;;;;;;0.87;0.70;;;4.50;99.90;;;;;;5058326;28;20183;-81
2020/12/29 04:58:37;;;;;;;0.20;0.20;;;4.50;99.90;;;;;;5053123;28;20186;-81
2020/12/29 05:01:09;;;;;;;0.00;0.00;;;4.60;99.90;;;;;;5060646;28;20713;-82
2020/12/29 05:03:46;;;;;;;0.10;0.10;;;4.60;99.90;;;;;;5045682;28;20757;-82
2020/12/29 05:06:12;;;;;;;0.47;0.20;;;4.70;99.90;;;;;;5065873;28;20207;-83
2020/12/29 05:08:44;;;;;;;0.20;0.20;;;4.70;99.90;;;;;;5053241;28;20222;-85
2020/12/29 05:11:10;;;;;;;0.10;0.10;;;4.70;99.90;;;;;;5034814;28;20334;-79
2020/12/29 05:13:35;;;;;;;0.10;0.10;;;4.60;99.90;;;;;;5033936;28;20262;-82
2020/12/29 05:16:01;;;;;;;0.33;0.23;;;4.60;99.90;;;;;;5053368;28;20192;-81
2020/12/29 05:18:27;;;;;;;0.13;0.13;;;4.70;99.90;;;;;;5040981;28;20275;-82
2020/12/29 05:20:53;;;;;;;0.23;0.17;;;4.70;99.90;;;;;;5045649;28;20235;-82
2020/12/29 05:23:18;;;;;;;0.30;0.30;;;4.80;99.90;;;;;;5047717;28;20854;-81
2020/12/29 05:25:48;;;;;;;0.20;0.20;;;4.80;99.90;;;;;;5046338;28;20273;-81
2020/12/29 05:28:14;;;;;;;0.50;0.50;;;4.80;99.90;;;;;;5052690;28;20192;-82
2020/12/29 05:30:41;;;;;;;0.30;0.30;;;4.80;99.90;;;;;;5050679;28;20197;-82
2020/12/29 05:33:11;;;;;;;0.20;0.20;;;4.80;99.90;;;;;;5045374;28;20216;-82
2020/12/29 05:35:38;;;;;;;0.10;0.10;;;4.90;99.90;;;;;;5045353;28;20181;-81
2020/12/29 05:38:07;;;;;;;0.40;0.40;;;4.80;99.90;;;;;;5052613;28;20185;-80
2020/12/29 05:40:32;;;;;;;0.63;0.40;;;4.70;99.90;;;;;;5032428;28;20189;-83
2020/12/29 05:43:00;;;;;;;0.30;0.30;;;4.60;99.90;;;;;;5050364;28;20222;-82
2020/12/29 05:45:31;;;;;;;0.20;0.20;;;4.60;99.90;;;;;;5059342;28;20187;-82
2020/12/29 05:47:58;;;;;;;0.53;0.30;;;4.70;99.90;;;;;;5051320;28;20198;-82
2020/12/29 05:50:24;;;;;;;0.30;0.30;;;4.70;99.90;;;;;;5043387;28;20195;-82
2020/12/29 05:52:54;;;;;;;0.40;0.40;;;4.70;99.90;;;;;;5049354;28;20218;-82
2020/12/29 05:55:21;;;;;;;0.10;0.10;;;4.70;99.90;;;;;;5063289;28;20205;-82
2020/12/29 05:58:06;;;;;;;1.07;0.40;;;4.70;99.90;;;;;;5066278;28;20187;-82
2020/12/29 06:00:32;;;;;;;0.40;0.30;;;4.60;99.90;;;;;;5055833;28;20221;-83
2020/12/29 06:02:59;;;;;;;0.10;0.10;;;4.60;99.90;;;;;;5059490;28;20230;-81
2020/12/29 06:05:30;;;;;;;0.10;0.10;;;4.60;99.90;;;;;;5046205;28;20266;-81
2020/12/29 06:07:58;;;;;;;0.20;0.20;;;4.60;99.90;;;;;;5052427;28;20186;-82
2020/12/29 06:10:25;;;;;;;0.63;0.50;;;4.50;99.90;;;;;;5043794;28;20667;-80
2020/12/29 06:12:53;;;;;;;0.17;0.17;;;4.50;99.90;;;;;;5050790;28;20214;-82
2020/12/29 06:15:27;;;;;;;0.20;0.20;;;4.40;99.90;;;;;;5050537;28;20171;-81
2020/12/29 06:17:58;;;;;;;0.70;0.70;;;4.40;99.90;;;;;;5052230;28;20182;-82
2020/12/29 06:20:34;;;;;;;0.10;0.10;;;4.30;99.90;;;;;;5046696;28;20182;-82
2020/12/29 06:23:01;;;;;;;0.30;0.30;;;4.20;99.90;;;;;;5050146;28;20736;-85
2020/12/29 06:25:37;;;;;;;0.30;0.30;;;4.20;99.90;;;;;;5054753;28;20244;-83
2020/12/29 06:28:06;;;;;;;0.10;0.10;;;4.10;99.90;;;;;;5049370;28;20270;-85
2020/12/29 06:30:41;;;;;;;0.10;0.10;;;4.00;99.90;;;;;;5070435;28;20189;-84
2020/12/29 06:33:07;;;;;;;0.00;0.00;;;3.90;99.90;;;;;;5059914;28;20205;-82
2020/12/29 06:35:33;;;;;;;0.30;0.30;;;3.90;99.90;;;;;;5049771;28;20205;-82
2020/12/29 06:38:14;;;;;;;0.20;0.20;;;3.90;99.90;;;;;;5051617;28;20634;-82
2020/12/29 06:40:42;;;;;;;0.63;0.30;;;3.80;99.90;;;;;;5042845;28;20726;-80
2020/12/29 06:43:08;;;;;;;0.00;0.00;;;3.80;99.90;;;;;;5043450;28;20182;-82
2020/12/29 06:45:35;;;;;;;0.33;0.33;;;3.70;99.90;;;;;;5048697;28;20186;-81
2020/12/29 06:48:01;;;;;;;0.30;0.30;;;3.70;99.90;;;;;;5048075;28;20181;-81
2020/12/29 06:50:32;;;;;;;0.10;0.10;;;3.70;99.90;;;;;;5041930;28;20240;-84
2020/12/29 06:53:05;;;;;;;0.20;0.20;;;3.70;99.90;;;;;;5045892;28;20214;-84
2020/12/29 06:55:39;;;;;;;0.10;0.10;;;3.70;99.90;;;;;;5040054;28;20192;-82
2020/12/29 06:58:06;;;;;;;0.27;0.23;;;3.80;99.90;;;;;;5043305;28;20556;-84
2020/12/29 07:00:35;;;;;;;0.10;0.10;;;3.70;99.90;;;;;;5042535;28;20186;-82
2020/12/29 07:03:01;;;;;;;0.07;0.07;;;3.70;99.90;;;;;;5050540;28;20203;-83
2020/12/29 07:05:28;;;;;;;0.10;0.10;;;3.70;99.90;;;;;;5051425;28;20193;-83
2020/12/29 07:08:08;;;;;;;0.57;0.57;;;3.60;99.90;;;;;;5049977;28;20553;-82
2020/12/29 07:10:41;;;;;;;0.70;0.70;;;3.60;99.90;;;;;;5046643;28;20186;-82
2020/12/29 07:13:13;;;;;;;0.10;0.10;;;3.70;99.90;;;;;;5043449;28;20209;-83
2020/12/29 07:15:45;;;;;;;0.20;0.20;;;3.60;99.90;;;;;;5047925;28;20653;-83
2020/12/29 07:18:11;;;;;;;0.20;0.20;;;3.60;99.90;;;;;;5048382;28;20542;-83
2020/12/29 07:20:37;;;;;;;0.13;0.13;;;3.60;99.90;;;;;;5048002;28;20189;-82
2020/12/29 07:23:07;;;;;;;0.57;0.50;;;3.60;99.90;;;;;;5047737;28;20209;-82
2020/12/29 07:25:34;;;;;;;0.20;0.20;;;3.60;99.90;;;;;;5046086;28;20228;-83
2020/12/29 07:28:09;;;;;;;0.50;0.30;;;3.60;99.90;;;;;;5048039;28;20216;-82
2020/12/29 07:30:35;;;;;;;0.10;0.10;;;3.60;99.90;;;;;;5050050;28;20245;-83
2020/12/29 07:33:04;;;;;;;0.00;0.00;;;3.50;99.90;;;;;;5045708;28;20218;-82
2020/12/29 07:35:32;;;;;;;0.93;0.40;;;3.60;99.90;;;;;;5048162;28;20270;-83
2020/12/29 07:38:04;;;;;;;0.13;0.13;;;3.50;99.90;;;;;;5048598;28;20720;-83
2020/12/29 07:40:30;;;;;;;1.23;0.40;;;3.50;99.90;;;;;;5046812;28;20213;-82
2020/12/29 07:42:55;;;;;;;0.13;0.13;;;3.60;99.90;;;;;;5053179;28;20220;-82
2020/12/29 07:45:22;;;;;;;0.17;0.17;;;3.60;99.90;;;;;;5043600;28;20895;-84
2020/12/29 07:47:48;;;;;;;0.93;0.30;;;3.60;99.90;;;;;;5053387;28;20298;-83
2020/12/29 07:50:13;;;;;;;0.10;0.10;;;3.60;99.90;;;;;;5037278;28;20661;-82
2020/12/29 07:52:39;;;;;;;0.20;0.20;;;3.60;99.90;;;;;;5039219;28;20263;-83
2020/12/29 07:55:15;;;;;;;0.83;0.20;;;3.60;99.90;;;;;;5039353;28;20210;-81
2020/12/29 07:57:43;;;;;;;0.10;0.10;;;3.60;99.90;;;;;;5036399;28;20194;-82
2020/12/29 08:00:14;;;;;;;0.20;0.20;;;3.70;99.90;;;;;;5050956;28;20189;-82
2020/12/29 08:02:40;;;;;;;0.10;0.10;;;3.70;99.90;;;;;;5050542;28;20269;-83
2020/12/29 08:05:06;;;;;;;0.10;0.10;;;3.70;99.90;;;;;;5053329;28;20186;-83
2020/12/29 08:07:32;;;;;;;0.33;0.33;;;3.70;99.90;;;;;;5052841;28;20237;-83
2020/12/29 08:09:57;;;;;;;0.10;0.10;;;3.70;99.90;;;;;;5050737;28;20185;-82
2020/12/29 08:12:23;;;;;;;0.00;0.00;;;3.80;99.90;;;;;;5055315;28;20286;-81
2020/12/29 08:14:49;;;;;;;0.10;0.10;;;3.80;99.90;;;;;;5071586;28;20711;-82
2020/12/29 08:17:14;;;;;;;0.10;0.10;;;3.90;99.90;;;;;;5065872;28;20546;-82
2020/12/29 08:19:40;;;;;;;0.13;0.10;;;3.90;99.90;;;;;;5052951;28;20189;-83
2020/12/29 08:22:06;;;;;;;0.10;0.10;;;3.90;99.90;;;;;;5053767;28;20219;-82
2020/12/29 08:24:32;;;;;;;0.20;0.20;;;4.00;99.90;;;;;;5065957;28;20615;-82
2020/12/29 08:26:59;;;;;;;0.10;0.10;;;4.00;99.90;;;;;;5052363;28;20269;-83
2020/12/29 08:29:25;;;;;;;1.30;0.20;;;4.10;99.90;;;;;;5056096;28;20178;-82
2020/12/29 08:32:11;;;;;;;0.23;0.23;;;4.10;99.90;;;;;;5063232;28;20719;-83
2020/12/29 08:34:44;;;;;;;0.13;0.13;;;4.20;99.90;;;;;;5068101;28;20661;-83
2020/12/29 08:37:12;;;;;;;0.10;0.10;;;4.20;99.90;;;;;;5056857;28;20292;-82
2020/12/29 08:39:51;;;;;;;0.10;0.10;;;4.20;99.90;;;;;;5052796;28;20278;-82
2020/12/29 08:42:18;;;;;;;0.07;0.07;;;4.30;99.90;;;;;;5074464;28;20296;-83
2020/12/29 08:44:45;;;;;;;0.20;0.20;;;4.30;99.90;;;;;;5064459;28;20180;-80
2020/12/29 08:47:12;;;;;;;0.10;0.10;;;4.30;99.90;;;;;;5066708;28;20182;-83
2020/12/29 08:49:38;;;;;;;0.17;0.17;;;4.40;99.90;;;;;;5050262;28;20191;-82
2020/12/29 08:52:04;;;;;;;0.10;0.10;;;4.40;99.90;;;;;;5042283;28;20218;-83
2020/12/29 08:54:38;;;;;;;0.10;0.10;;;4.40;99.90;;;;;;5050850;28;20578;-82
2020/12/29 08:57:05;;;;;;;0.10;0.10;;;4.50;99.90;;;;;;5049178;28;20560;-80
2020/12/29 08:59:36;;;;;;;0.10;0.10;;;4.50;99.90;;;;;;5040449;28;20187;-83
2020/12/29 09:02:02;;;;;;;0.00;0.00;;;4.50;99.90;;;;;;5043460;28;20207;-81
2020/12/29 09:04:40;;;;;;;0.10;0.10;;;4.50;99.90;;;;;;5066086;28;20624;-83
2020/12/29 09:07:10;;;;;;;0.10;0.10;;;4.50;99.90;;;;;;5050323;28;20194;-83
2020/12/29 09:09:36;;;;;;;0.10;0.10;;;4.50;99.90;;;;;;5041504;28;20198;-84
2020/12/29 09:12:13;;;;;;;0.20;0.20;;;4.60;99.90;;;;;;5034589;28;20268;-83
2020/12/29 09:14:51;;;;;;;0.20;0.20;;;4.50;99.90;;;;;;5035105;28;20183;-83
2020/12/29 09:17:17;;;;;;;0.20;0.20;;;4.60;99.90;;;;;;5043557;28;20193;-84
2020/12/29 09:20:03;;;;;;;0.40;0.23;;;4.60;99.90;;;;;;5037629;28;20205;-84
2020/12/29 09:22:28;;;;;;;0.00;0.00;;;4.60;99.90;;;;;;5048084;28;20285;-84
2020/12/29 09:24:54;;;;;;;0.10;0.10;;;4.60;99.90;;;;;;5036707;28;20309;-83
2020/12/29 09:27:30;;;;;;;0.10;0.10;;;4.60;99.90;;;;;;5044807;28;21450;-82
2020/12/29 09:29:56;;;;;;;0.00;0.00;;;4.70;99.90;;;;;;5039409;28;20198;-82
2020/12/29 09:32:24;;;;;;;0.10;0.10;;;4.60;99.90;;;;;;5044165;28;20240;-83
2020/12/29 09:34:50;;;;;;;0.00;0.00;;;4.70;99.90;;;;;;5047100;28;20191;-83
2020/12/29 09:37:17;;;;;;;0.10;0.10;;;4.70;99.90;;;;;;5039628;28;20191;-83
2020/12/29 09:39:43;;;;;;;0.10;0.10;;;4.70;99.90;;;;;;5047482;28;20197;-83
2020/12/29 09:42:09;;;;;;;0.53;0.53;;;4.70;99.90;;;;;;5059042;28;20214;-83
2020/12/29 09:44:39;;;;;;;0.10;0.10;;;4.80;99.90;;;;;;5061356;28;20186;-83
2020/12/29 09:47:05;;;;;;;0.20;0.20;;;4.80;99.90;;;;;;5048027;28;20226;-83
2020/12/29 09:49:30;;;;;;;0.10;0.10;;;4.80;99.90;;;;;;5046716;28;20187;-83
2020/12/29 09:51:56;;;;;;;0.57;0.30;;;4.80;99.90;;;;;;5042301;28;20581;-83
2020/12/29 09:54:21;;;;;;;0.10;0.10;;;4.90;99.90;;;;;;5064246;28;20225;-83
2020/12/29 09:56:47;;;;;;;0.13;0.13;;;4.90;99.90;;;;;;5040584;28;20193;-83
2020/12/29 09:59:12;;;;;;;0.10;0.10;;;5.00;99.90;;;;;;5051848;28;20207;-82
2020/12/29 10:01:38;;;;;;;0.33;0.27;;;5.00;99.90;;;;;;5043788;28;20316;-81
2020/12/29 10:04:03;;;;;;;0.20;0.20;;;5.10;99.90;;;;;;5048096;28;20237;-84
2020/12/29 10:06:30;;;;;;;0.00;0.00;;;5.10;99.90;;;;;;5040350;28;20188;-82
2020/12/29 10:08:56;;;;;;;0.00;0.00;;;5.20;99.90;;;;;;5041651;28;20188;-84
2020/12/29 10:11:21;;;;;;;0.10;0.10;;;5.30;99.90;;;;;;5046901;28;20208;-83
2020/12/29 10:13:47;;;;;;;0.20;0.20;;;5.40;99.90;;;;;;5037346;28;20294;-82
2020/12/29 10:16:12;;;;;;;0.10;0.10;;;5.50;99.90;;;;;;5036243;28;20196;-83
2020/12/29 10:18:38;;;;;;;0.10;0.10;;;5.50;99.90;;;;;;5047931;28;20290;-82
2020/12/29 10:21:04;;;;;;;0.00;0.00;;;5.60;99.90;;;;;;5046003;28;20730;-81
2020/12/29 10:23:30;;;;;;;0.10;0.10;;;5.80;99.90;;;;;;5047962;28;20188;-82
2020/12/29 10:25:55;;;;;;;0.20;0.20;;;5.80;99.90;;;;;;5050598;28;20197;-82
2020/12/29 10:28:21;;;;;;;0.60;0.60;;;6.00;99.90;;;;;;5053097;28;20197;-82
2020/12/29 10:30:49;;;;;;;0.00;0.00;;;6.10;99.90;;;;;;5052952;28;20930;-85
2020/12/29 10:33:15;;;;;;;1.90;0.33;;;6.10;99.90;;;;;;5045413;28;20631;-84
2020/12/29 10:35:41;;;;;;;0.20;0.20;;;6.20;99.90;;;;;;5051515;28;20264;-82
2020/12/29 10:38:06;;;;;;;0.00;0.00;;;6.10;99.90;;;;;;5041618;28;20189;-82
2020/12/29 10:40:32;;;;;;;0.27;0.27;;;6.20;99.90;;;;;;5045009;28;20187;-83
2020/12/29 10:42:58;;;;;;;0.00;0.00;;;6.20;99.90;;;;;;5036465;28;20209;-82
2020/12/29 10:45:23;;;;;;;0.17;0.17;;;6.20;99.90;;;;;;5044670;28;20184;-82
2020/12/29 10:47:49;;;;;;;0.10;0.10;;;6.10;99.90;;;;;;5047796;28;20204;-81
2020/12/29 10:50:14;;;;;;;0.23;0.23;;;6.20;99.90;;;;;;5039538;28;20931;-81
2020/12/29 10:52:40;;;;;;;0.10;0.10;;;6.20;99.90;;;;;;5039146;28;20298;-79
2020/12/29 10:55:05;;;;;;;0.67;0.67;;;6.30;99.90;;;;;;5039672;28;20188;-82
2020/12/29 10:57:34;;;;;;;0.10;0.10;;;6.30;99.90;;;;;;5048555;28;20188;-82
2020/12/29 11:00:00;;;;;;;0.10;0.10;;;6.30;99.90;;;;;;5039236;28;20189;-81
2020/12/29 11:02:25;;;;;;;0.10;0.10;;;6.30;99.90;;;;;;5047908;28;20266;-81
2020/12/29 11:04:51;;;;;;;0.33;0.33;;;6.30;99.90;;;;;;5048077;28;20195;-82
2020/12/29 11:07:16;;;;;;;0.20;0.20;;;6.30;99.90;;;;;;5046415;28;20223;-82
2020/12/29 11:09:42;;;;;;;0.10;0.10;;;6.40;99.90;;;;;;5043393;28;20334;-82
2020/12/29 11:12:07;;;;;;;0.10;0.10;;;6.40;99.90;;;;;;5049149;28;20706;-81
2020/12/29 11:14:33;;;;;;;0.20;0.13;;;6.50;99.90;;;;;;5045860;28;20217;-81
2020/12/29 11:16:59;;;;;;;1.87;0.20;;;6.70;99.90;;;;;;5051138;28;20185;-81
2020/12/29 11:19:24;;;;;;;0.20;0.20;;;6.80;99.90;;;;;;5042132;28;20178;-82
2020/12/29 11:21:50;;;;;;;0.10;0.10;;;6.70;99.90;;;;;;5038237;28;20212;-82
2020/12/29 11:24:16;;;;;;;0.13;0.13;;;6.70;99.90;;;;;;5044054;28;20197;-82
2020/12/29 11:26:42;;;;;;;0.40;0.40;;;6.50;99.90;;;;;;5045514;28;20198;-81
2020/12/29 11:29:08;;;;;;;0.60;0.60;;;6.40;99.90;;;;;;5041592;28;20212;-81
2020/12/29 11:31:33;;;;;;;0.50;0.50;;;6.40;99.90;;;;;;5042620;28;20213;-81
2020/12/29 11:33:59;;;;;;;0.10;0.10;;;6.40;99.90;;;;;;5041085;28;20242;-82
2020/12/29 11:36:24;;;;;;;0.20;0.20;;;6.30;99.90;;;;;;5047568;28;20188;-82
2020/12/29 11:38:50;;;;;;;0.20;0.20;;;6.20;99.90;;;;;;5061723;28;20188;-82
2020/12/29 11:41:16;;;;;;;0.10;0.10;;;6.20;99.90;;;;;;5039840;28;20209;-81
2020/12/29 11:43:43;;;;;;;0.10;0.10;;;6.10;99.90;;;;;;5041129;28;20201;-82
2020/12/29 11:46:09;;;;;;;0.63;0.13;;;6.10;99.90;;;;;;5042799;28;20185;-80
2020/12/29 11:48:35;;;;;;;0.10;0.10;;;6.20;99.90;;;;;;5050433;28;20223;-82
2020/12/29 11:51:02;;;;;;;0.10;0.10;;;6.30;99.90;;;;;;5042704;28;20182;-82
2020/12/29 11:53:27;;;;;;;1.77;0.33;;;6.40;99.90;;;;;;5037268;28;20213;-81
2020/12/29 11:55:53;;;;;;;0.10;0.10;;;6.40;99.90;;;;;;5035135;28;20266;-81
2020/12/29 11:58:18;;;;;;;0.00;0.00;;;6.50;99.90;;;;;;5049277;28;20804;-82
2020/12/29 12:00:47;;;;;;;0.20;0.20;;;6.60;99.90;;;;;;5051814;28;20209;-82
2020/12/29 12:03:12;;;;;;;0.23;0.23;;;6.60;99.90;;;;;;5052547;28;20191;-82
2020/12/29 12:05:38;;;;;;;0.10;0.10;;;6.70;99.90;;;;;;5049642;28;20557;-81
2020/12/29 12:08:04;;;;;;;0.50;0.50;;;6.70;99.90;;;;;;5052557;28;20643;-81
2020/12/29 12:10:29;;;;;;;0.10;0.10;;;6.70;99.90;;;;;;5049180;28;20196;-82
2020/12/29 12:12:56;;;;;;;0.10;0.10;;;6.80;99.90;;;;;;5043852;28;20216;-82
2020/12/29 12:15:22;;;;;;;0.60;0.43;;;6.70;99.90;;;;;;5052767;28;20204;-80
2020/12/29 12:17:47;;;;;;;0.20;0.20;;;6.60;99.90;;;;;;5047941;28;20566;-82
2020/12/29 12:20:13;;;;;;;0.10;0.10;;;6.60;99.90;;;;;;5055755;28;20715;-81
2020/12/29 12:22:38;;;;;;;0.30;0.30;;;6.50;99.90;;;;;;5048190;28;20424;-81
2020/12/29 12:25:04;;;;;;;0.30;0.30;;;6.50;99.90;;;;;;5050304;28;20178;-82
2020/12/29 12:27:30;;;;;;;1.70;0.63;;;6.50;99.90;;;;;;5049210;28;20186;-82
2020/12/29 12:29:55;;;;;;;0.10;0.10;;;6.40;99.90;;;;;;5052273;28;20267;-80
2020/12/29 12:32:21;;;;;;;0.23;0.23;;;6.30;99.90;;;;;;5037153;28;20212;-82
2020/12/29 12:34:46;;;;;;;0.30;0.10;;;6.20;99.90;;;;;;5052487;28;20192;-82
2020/12/29 12:37:12;;;;;;;0.47;0.47;;;6.20;99.90;;;;;;5038981;28;20243;-82
2020/12/29 12:39:40;;;;;;;0.30;0.30;;;6.10;99.90;;;;;;5065833;28;20187;-81
2020/12/29 12:42:08;;;;;;;0.10;0.10;;;6.20;99.90;;;;;;5062274;28;20212;-82
2020/12/29 12:44:34;;;;;;;0.30;0.30;;;6.20;99.90;;;;;;5063715;28;20770;-82
2020/12/29 12:47:00;;;;;;;0.10;0.10;;;6.10;99.90;;;;;;5042447;28;20220;-81
2020/12/29 12:49:25;;;;;;;0.10;0.10;;;6.10;99.90;;;;;;5048839;28;20269;-80
2020/12/29 12:51:51;;;;;;;0.10;0.10;;;6.10;99.90;;;;;;5047146;28;20707;-82
2020/12/29 12:54:17;;;;;;;0.00;0.00;;;6.10;99.90;;;;;;5044016;28;20208;-82
2020/12/29 12:56:43;;;;;;;0.10;0.10;;;6.20;99.90;;;;;;5049035;28;20184;-82